Time;durP1;ratioP1;P1;durP2;ratioP2;P2;SDS_P1;SDS_P2;PMS_P1;PMS_P2;Temp;Humidity;BMP_temperature;BMP_pressure;BME280_temperature;BME280_humidity;BME280_pressure;Samples;Min_cycle;Max_cycle;Signal;HPM_P1;HPM_P2
2024/01/20 00:00:40;;;;;;;1.53;0.93;;;;;;;-143.84;91.75;45186.16;5070838;28;20444;-60
2024/01/20 00:03:07;;;;;;;1.70;1.00;;;;;;;-143.84;91.32;45214.72;5071162;28;20811;-60
2024/01/20 00:05:34;;;;;;;2.07;1.43;;;;;;;-143.84;91.04;45191.88;5070639;28;20448;-60
2024/01/20 00:08:01;;;;;;;0.80;0.53;;;;;;;-143.84;90.74;45201.41;5070716;28;20449;-60
2024/01/20 00:10:28;;;;;;;0.80;0.73;;;;;;;-143.84;90.52;45189.97;5070406;28;20481;-60
2024/01/20 00:12:55;;;;;;;0.80;0.60;;;;;;;-143.84;90.46;45218.53;5070475;28;20434;-60
2024/01/20 00:15:24;;;;;;;1.03;0.93;;;;;;;-143.84;90.60;45167.13;5070719;28;20488;-60
2024/01/20 00:17:51;;;;;;;2.07;1.73;;;;;;;-143.84;91.21;45191.88;5070348;28;20455;-60
2024/01/20 00:20:18;;;;;;;1.00;0.90;;;;;;;-143.84;91.23;45203.31;5070061;28;20435;-60
2024/01/20 00:22:46;;;;;;;5.43;0.90;;;;;;;-143.84;91.58;45201.41;5070462;28;20516;-60
2024/01/20 00:25:13;;;;;;;3.43;0.87;;;;;;;-143.84;91.52;45189.97;5070251;28;20538;-60
2024/01/20 00:27:40;;;;;;;1.60;1.03;;;;;;;-143.84;91.80;45180.47;5070301;28;20958;-60
2024/01/20 00:30:08;;;;;;;1.13;1.03;;;;;;;-143.84;91.51;45207.13;5070148;28;20433;-60
2024/01/20 00:32:37;;;;;;;0.80;0.60;;;;;;;-143.84;90.48;45216.63;5070289;28;20852;-60
2024/01/20 00:35:04;;;;;;;1.47;0.60;;;;;;;-143.84;90.06;45212.84;5070200;28;20478;-60
2024/01/20 00:37:31;;;;;;;0.80;0.53;;;;;;;-143.84;89.64;45203.31;5070164;28;20446;-60
2024/01/20 00:39:59;;;;;;;0.80;0.50;;;;;;;-143.84;89.44;45203.31;5070188;28;20455;-60
2024/01/20 00:42:26;;;;;;;0.80;0.60;;;;;;;-143.84;89.64;45193.78;5070406;28;20549;-60
2024/01/20 00:44:53;;;;;;;0.80;0.50;;;;;;;-143.84;89.64;45195.69;5069967;28;20434;-60
2024/01/20 00:47:20;;;;;;;0.80;0.60;;;;;;;-143.84;89.64;45210.94;5070397;28;20433;-60
2024/01/20 00:49:48;;;;;;;0.90;0.60;;;;;;;-143.84;89.41;45231.88;5070082;28;20535;-60
2024/01/20 00:52:16;;;;;;;0.90;0.67;;;;;;;-143.84;89.83;45220.44;5069755;28;20905;-60
2024/01/20 00:54:43;;;;;;;0.80;0.50;;;;;;;-143.84;89.55;45205.22;5069479;28;21003;-60
2024/01/20 00:57:10;;;;;;;0.80;0.50;;;;;;;-143.84;89.40;45189.97;5068852;28;20440;-60
2024/01/20 00:59:37;;;;;;;0.80;0.40;;;;;;;-143.84;89.20;45216.63;5069188;28;20434;-60
2024/01/20 01:02:05;;;;;;;0.80;0.50;;;;;;;-143.84;89.63;45212.84;5068543;28;20486;-60
2024/01/20 01:04:32;;;;;;;0.80;0.40;;;;;;;-143.84;89.78;45199.50;5069666;28;20945;-60
2024/01/20 01:07:00;;;;;;;1.23;1.07;;;;;;;-143.84;89.83;45216.63;5069474;28;20927;-60
2024/01/20 01:09:28;;;;;;;0.80;0.50;;;;;;;-143.84;89.75;45201.41;5069670;28;20495;-60
2024/01/20 01:11:55;;;;;;;0.80;0.60;;;;;;;-143.84;89.70;45193.78;5069429;28;21002;-60
2024/01/20 01:14:22;;;;;;;0.80;0.50;;;;;;;-143.84;89.58;45201.41;5069239;28;20484;-60
2024/01/20 01:16:49;;;;;;;1.00;0.90;;;;;;;-143.84;89.91;45199.50;5069491;28;20437;-60
2024/01/20 01:19:16;;;;;;;0.87;0.73;;;;;;;-143.84;89.77;45209.03;5069442;28;20441;-60
2024/01/20 01:21:43;;;;;;;0.80;0.50;;;;;;;-143.84;89.72;45201.41;5086626;28;21082;-60
2024/01/20 01:24:12;;;;;;;0.80;0.40;;;;;;;-143.84;89.55;45210.94;5089510;28;20477;-60
2024/01/20 01:26:39;;;;;;;0.80;0.50;;;;;;;-143.84;89.38;45193.78;5089806;28;20436;-60
2024/01/20 01:29:07;;;;;;;0.80;0.50;;;;;;;-143.84;89.51;45199.50;5089520;28;20865;-60
2024/01/20 01:31:34;;;;;;;0.80;0.50;;;;;;;-143.84;89.07;45210.94;5088624;28;20845;-60
2024/01/20 01:34:01;;;;;;;0.80;0.50;;;;;;;-143.84;89.24;45201.41;5089066;28;20505;-60
2024/01/20 01:36:28;;;;;;;1.00;0.70;;;;;;;-143.84;89.09;45212.84;5089356;28;20432;-60
2024/01/20 01:38:55;;;;;;;0.80;0.50;;;;;;;-143.84;88.89;45176.66;5089736;28;20416;-60
2024/01/20 01:41:24;;;;;;;0.80;0.63;;;;;;;-143.84;88.32;45176.66;5089207;28;20437;-60
2024/01/20 01:43:51;;;;;;;0.80;0.50;;;;;;;-143.84;88.30;45180.47;5089532;28;20444;-60
2024/01/20 01:46:18;;;;;;;0.80;0.50;;;;;;;-143.84;88.36;45220.44;5089330;28;20803;-60
2024/01/20 01:48:46;;;;;;;0.80;0.50;;;;;;;-143.84;88.28;45209.03;5089310;28;20454;-60
2024/01/20 01:51:13;;;;;;;0.80;0.50;;;;;;;-143.84;86.99;45210.94;5089015;28;20449;-60
2024/01/20 01:53:41;;;;;;;0.80;0.50;;;;;;;-143.84;87.19;45195.69;5089031;28;20994;-60
2024/01/20 01:56:09;;;;;;;0.80;0.40;;;;;;;-143.84;87.15;45216.63;5088880;28;20484;-60
2024/01/20 01:58:38;;;;;;;0.80;0.57;;;;;;;-143.84;87.36;45180.47;5089371;28;20478;-60
2024/01/20 02:01:05;;;;;;;0.80;0.50;;;;;;;-143.84;87.64;45209.03;5089188;28;20788;-60
2024/01/20 02:03:32;;;;;;;0.80;0.50;;;;;;;-143.84;87.69;45180.47;5088958;28;20442;-60
2024/01/20 02:05:59;;;;;;;0.80;0.57;;;;;;;-143.84;88.17;45214.72;5089107;28;20999;-60
2024/01/20 02:08:27;;;;;;;0.90;0.60;;;;;;;-143.84;88.78;45193.78;5089102;28;20445;-60
2024/01/20 02:10:55;;;;;;;0.80;0.60;;;;;;;-143.84;89.52;45243.31;5088567;28;20490;-60
2024/01/20 02:13:22;;;;;;;0.80;0.40;;;;;;;-143.84;89.52;45231.88;5088858;28;20447;-60
2024/01/20 02:15:51;;;;;;;0.80;0.40;;;;;;;-143.84;89.65;45209.03;5088952;28;20836;-60
2024/01/20 02:18:22;;;;;;;0.80;0.50;;;;;;;-143.84;90.50;45195.69;5088910;28;20436;-60
2024/01/20 02:20:49;;;;;;;0.80;0.50;;;;;;;-143.84;90.41;45195.69;5089038;28;20451;-60
2024/01/20 02:23:17;;;;;;;1.10;0.70;;;;;;;-143.84;91.27;45222.34;5088750;28;20432;-60
2024/01/20 02:25:44;;;;;;;0.80;0.53;;;;;;;-143.84;91.90;45205.22;5088840;28;20513;-60
2024/01/20 02:28:12;;;;;;;0.80;0.50;;;;;;;-143.84;91.80;45214.72;5088641;28;20436;-60
2024/01/20 02:30:39;;;;;;;0.80;0.50;;;;;;;-143.84;92.08;45214.72;5088748;28;20860;-60
2024/01/20 02:33:06;;;;;;;0.87;0.70;;;;;;;-143.84;92.40;45210.94;5089003;28;20452;-60
2024/01/20 02:35:33;;;;;;;0.80;0.50;;;;;;;-143.84;92.55;45197.59;5088633;28;20487;-60
2024/01/20 02:38:01;;;;;;;0.80;0.50;;;;;;;-143.84;92.44;45212.84;5088759;28;20446;-60
2024/01/20 02:40:29;;;;;;;0.80;0.53;;;;;;;-143.84;93.20;45205.22;5088814;28;20432;-60
2024/01/20 02:42:57;;;;;;;0.80;0.50;;;;;;;-143.84;93.11;45207.13;5089483;28;20925;-60
2024/01/20 02:45:24;;;;;;;0.90;0.73;;;;;;;-143.84;92.52;45226.16;5092440;28;20455;-60
2024/01/20 02:47:54;;;;;;;0.80;0.70;;;;;;;-143.84;92.86;45210.94;5092932;28;20440;-60
2024/01/20 02:50:21;;;;;;;0.80;0.50;;;;;;;-143.84;92.44;45214.72;5092285;28;20443;-60
2024/01/20 02:52:48;;;;;;;0.80;0.50;;;;;;;-143.84;92.20;45315.66;5092308;28;20467;-60
2024/01/20 02:55:15;;;;;;;0.80;0.53;;;;;;;-143.84;92.38;45195.69;5092235;28;20483;-60
2024/01/20 02:57:44;;;;;;;0.80;0.50;;;;;;;-143.84;92.59;45216.63;5092147;28;20432;-60
2024/01/20 03:00:12;;;;;;;0.80;0.50;;;;;;;-143.84;92.63;45224.25;5092257;28;20497;-60
2024/01/20 03:02:39;;;;;;;0.80;0.50;;;;;;;-143.84;92.97;45210.94;5075949;28;20805;-60
2024/01/20 03:05:07;;;;;;;1.80;1.70;;;;;;;-143.84;92.63;45228.06;5072199;28;20433;-60
2024/01/20 03:07:34;;;;;;;0.80;0.50;;;;;;;-143.84;92.56;45229.97;5071908;28;20445;-60
2024/01/20 03:10:01;;;;;;;0.80;0.60;;;;;;;-143.84;92.52;45210.94;5071926;28;20857;-60
2024/01/20 03:12:29;;;;;;;0.80;0.50;;;;;;;-143.84;92.75;45199.50;5071511;28;20989;-60
2024/01/20 03:14:57;;;;;;;0.80;0.60;;;;;;;-143.84;92.32;45222.34;5071686;28;20845;-60
2024/01/20 03:17:24;;;;;;;3.63;0.87;;;;;;;-143.84;92.15;45207.13;5071783;28;20474;-60
2024/01/20 03:19:51;;;;;;;0.80;0.50;;;;;;;-143.84;92.67;45189.97;5073230;28;20859;-60
2024/01/20 03:22:19;;;;;;;0.80;0.80;;;;;;;-143.84;92.84;45210.94;5091648;28;20500;-60
2024/01/20 03:24:48;;;;;;;0.80;0.60;;;;;;;-143.84;93.52;45197.59;5091668;28;20440;-60
2024/01/20 03:27:15;;;;;;;0.80;0.50;;;;;;;-143.84;94.05;45209.03;5091775;28;20530;-60
2024/01/20 03:29:42;;;;;;;0.80;0.53;;;;;;;-143.84;94.33;45214.72;5091896;28;20424;-60
2024/01/20 03:32:10;;;;;;;0.80;0.50;;;;;;;-143.84;94.31;45212.84;5091672;28;20512;-60
2024/01/20 03:34:38;;;;;;;0.80;0.70;;;;;;;-143.84;95.30;45231.88;5076756;28;20453;-60
2024/01/20 03:37:06;;;;;;;0.93;0.80;;;;;;;-143.84;95.16;45252.81;5071398;28;20548;-60
2024/01/20 03:39:33;;;;;;;0.80;0.50;;;;;;;-143.84;95.55;45218.53;5071233;28;20436;-60
2024/01/20 03:42:00;;;;;;;0.80;0.60;;;;;;;-143.84;95.52;45249.00;5071335;28;20471;-60
2024/01/20 03:44:27;;;;;;;0.80;0.70;;;;;;;-143.84;95.48;45205.22;5071167;28;20446;-60
2024/01/20 03:46:54;;;;;;;0.80;0.50;;;;;;;-143.84;96.34;45201.41;5071039;28;20976;-60
2024/01/20 03:49:23;;;;;;;0.80;0.50;;;;;;;-143.84;96.43;45228.06;5070755;28;20450;-60
2024/01/20 03:51:50;;;;;;;0.87;0.67;;;;;;;-143.84;95.99;45224.25;5070418;28;21004;-60
2024/01/20 03:54:17;;;;;;;0.80;0.50;;;;;;;-143.84;96.48;45224.25;5070148;28;20860;-60
2024/01/20 03:56:44;;;;;;;0.80;0.60;;;;;;;-143.84;96.58;45197.59;5070195;28;21206;-60
2024/01/20 03:59:11;;;;;;;0.80;0.50;;;;;;;-143.84;96.04;45193.78;5070951;28;20507;-60
2024/01/20 04:01:39;;;;;;;0.80;0.60;;;;;;;-143.84;96.11;45233.78;5070987;28;20424;-60
2024/01/20 04:04:06;;;;;;;0.80;0.50;;;;;;;-143.84;96.24;45226.16;5070663;28;20443;-60
2024/01/20 04:06:35;;;;;;;0.80;0.50;;;;;;;-143.84;96.17;45218.53;5070320;28;20448;-60
2024/01/20 04:09:03;;;;;;;0.80;0.60;;;;;;;-143.84;96.06;45229.97;5070776;28;20436;-60
2024/01/20 04:11:31;;;;;;;0.80;0.60;;;;;;;-143.84;96.39;45186.16;5070448;28;20586;-60
2024/01/20 04:13:58;;;;;;;0.80;0.67;;;;;;;-143.84;96.70;45216.63;5070868;28;20432;-60
2024/01/20 04:16:25;;;;;;;0.80;0.50;;;;;;;-143.84;96.18;45239.50;5070745;28;20530;-60
2024/01/20 04:18:52;;;;;;;0.80;0.60;;;;;;;-143.84;96.33;45197.59;5070630;28;20467;-60
2024/01/20 04:21:19;;;;;;;0.80;0.50;;;;;;;-143.84;96.64;45212.84;5070373;28;20440;-60
2024/01/20 04:23:50;;;;;;;1.20;1.10;;;;;;;-143.84;96.46;45186.16;5070693;28;20972;-60
2024/01/20 04:26:17;;;;;;;0.80;0.50;;;;;;;-143.84;96.46;45216.63;5070581;28;20447;-60
2024/01/20 04:28:44;;;;;;;1.37;0.77;;;;;;;-143.84;95.99;45216.63;5070120;28;20429;-60
2024/01/20 04:31:12;;;;;;;0.80;0.53;;;;;;;-143.84;96.11;45226.16;5070573;28;20481;-60
2024/01/20 04:33:39;;;;;;;0.80;0.50;;;;;;;-143.84;95.86;45220.44;5070044;28;20467;-60
2024/01/20 04:36:07;;;;;;;0.80;0.50;;;;;;;-143.84;95.77;45186.16;5070242;28;20482;-60
2024/01/20 04:38:34;;;;;;;0.80;0.50;;;;;;;-143.84;96.05;45207.13;5070300;28;20455;-60
2024/01/20 04:41:03;;;;;;;1.43;0.80;;;;;;;-143.84;95.80;45201.41;5070055;28;20989;-60
2024/01/20 04:43:30;;;;;;;0.80;0.60;;;;;;;-143.84;95.91;45229.97;5069952;28;20451;-60
2024/01/20 04:45:57;;;;;;;0.80;0.50;;;;;;;-143.84;95.56;45172.84;5070165;28;20456;-60
2024/01/20 04:48:24;;;;;;;1.00;0.77;;;;;;;-143.84;95.28;45222.34;5070461;28;20454;-60
2024/01/20 04:50:51;;;;;;;1.20;0.83;;;;;;;-143.84;95.50;45212.84;5069715;28;20452;-60
2024/01/20 04:53:18;;;;;;;0.80;0.50;;;;;;;-143.84;95.60;45201.41;5069809;28;20440;-60
2024/01/20 04:55:46;;;;;;;0.80;0.50;;;;;;;-143.84;95.09;45229.97;5069936;28;20822;-60
2024/01/20 04:58:14;;;;;;;0.80;0.50;;;;;;;-143.84;94.56;45199.50;5069710;28;20440;-60
2024/01/20 05:00:41;;;;;;;0.80;0.60;;;;;;;-143.84;93.94;45216.63;5069778;28;20452;-60
2024/01/20 05:03:08;;;;;;;0.87;0.77;;;;;;;-143.84;93.98;45220.44;5070123;28;20444;-60
2024/01/20 05:05:36;;;;;;;0.80;0.50;;;;;;;-143.84;93.78;45214.72;5069637;28;20428;-60
2024/01/20 05:08:03;;;;;;;1.30;0.70;;;;;;;-143.84;93.81;45228.06;5068649;28;20448;-60
2024/01/20 05:10:30;;;;;;;0.80;0.50;;;;;;;-143.84;93.69;45216.63;5069422;28;20449;-60
2024/01/20 05:12:57;;;;;;;0.80;0.50;;;;;;;-143.84;93.72;45197.59;5069777;28;20447;-60
2024/01/20 05:15:26;;;;;;;0.90;0.63;;;;;;;-143.84;93.80;45210.94;5069510;28;20506;-60
2024/01/20 05:17:53;;;;;;;0.90;0.70;;;;;;;-143.84;93.73;45207.13;5069944;28;20440;-60
2024/01/20 05:20:20;;;;;;;0.80;0.50;;;;;;;-143.84;93.84;45218.53;5075354;28;20440;-60
2024/01/20 05:22:47;;;;;;;0.80;0.50;;;;;;;-143.84;93.76;45226.16;5089762;28;20439;-60
2024/01/20 05:25:15;;;;;;;0.80;0.50;;;;;;;-143.84;93.65;45228.06;5089662;28;20459;-60
2024/01/20 05:27:42;;;;;;;0.80;0.50;;;;;;;-143.84;94.06;45209.03;5089411;28;20522;-60
2024/01/20 05:30:11;;;;;;;0.80;0.50;;;;;;;-143.84;93.43;45201.41;5089593;28;20454;-60
2024/01/20 05:32:42;;;;;;;1.07;0.97;;;;;;;-143.84;93.42;45220.44;5089626;28;20812;-60
2024/01/20 05:35:09;;;;;;;1.00;0.60;;;;;;;-143.84;93.03;45209.03;5089457;28;20450;-60
2024/01/20 05:37:37;;;;;;;0.80;0.50;;;;;;;-143.84;92.91;45233.78;5089275;28;21004;-60
2024/01/20 05:40:06;;;;;;;0.80;0.50;;;;;;;-143.84;92.68;45191.88;5089618;28;20446;-60
2024/01/20 05:42:33;;;;;;;3.10;2.07;;;;;;;-143.84;92.43;45243.31;5089552;28;20861;-60
2024/01/20 05:45:00;;;;;;;0.80;0.50;;;;;;;-143.84;92.60;45226.16;5089542;28;20432;-60
2024/01/20 05:47:27;;;;;;;0.90;0.70;;;;;;;-143.84;92.10;45203.31;5089314;28;20527;-60
2024/01/20 05:49:56;;;;;;;0.80;0.50;;;;;;;-143.84;92.26;45233.78;5089440;28;20439;-60
2024/01/20 05:52:23;;;;;;;0.80;0.60;;;;;;;-143.84;91.69;45228.06;5089375;28;20458;-60
2024/01/20 05:54:50;;;;;;;0.80;0.50;;;;;;;-143.84;91.50;45210.94;5089890;28;20435;-60
2024/01/20 05:57:17;;;;;;;0.80;0.50;;;;;;;-143.84;92.23;45197.59;5089285;28;20482;-60
2024/01/20 05:59:44;;;;;;;0.80;0.50;;;;;;;-143.84;91.92;45207.13;5089347;28;21100;-60
2024/01/20 06:02:12;;;;;;;4.60;2.50;;;;;;;-143.84;91.88;45218.53;5089734;28;20898;-60
2024/01/20 06:04:39;;;;;;;0.80;0.50;;;;;;;-143.84;91.96;45214.72;5089218;28;20448;-60
2024/01/20 06:07:07;;;;;;;0.80;0.50;;;;;;;-143.84;92.47;45224.25;5089128;28;20526;-59
2024/01/20 06:09:34;;;;;;;0.80;0.40;;;;;;;-143.84;93.42;45222.34;5089289;28;20800;-60
2024/01/20 06:12:02;;;;;;;3.17;1.63;;;;;;;-143.84;93.31;45214.72;5089252;28;20471;-60
2024/01/20 06:14:29;;;;;;;0.80;0.70;;;;;;;-143.84;93.37;45220.44;5089453;28;20447;-60
2024/01/20 06:16:56;;;;;;;0.80;0.50;;;;;;;-143.84;94.12;45220.44;5088955;28;20479;-60
2024/01/20 06:19:23;;;;;;;1.27;0.87;;;;;;;-143.84;93.70;45231.88;5092284;28;20443;-60
2024/01/20 06:21:50;;;;;;;0.80;0.60;;;;;;;-143.84;94.09;45193.78;5074485;28;20451;-60
2024/01/20 06:24:18;;;;;;;0.80;0.50;;;;;;;-143.84;93.82;45229.97;5072940;28;20428;-60
2024/01/20 06:26:45;;;;;;;0.80;0.63;;;;;;;-143.84;93.52;45247.09;5074746;28;20500;-60
2024/01/20 06:29:13;;;;;;;0.80;0.60;;;;;;;-143.84;93.79;45226.16;5073709;28;20533;-60
2024/01/20 06:31:40;;;;;;;0.80;0.50;;;;;;;-143.84;93.23;45233.78;5072598;28;20930;-60
2024/01/20 06:34:07;;;;;;;0.80;0.50;;;;;;;-143.84;92.94;45235.69;5072442;28;20445;-60
2024/01/20 06:36:34;;;;;;;0.80;0.50;;;;;;;-143.84;92.77;45226.16;5072919;28;20483;-60
2024/01/20 06:39:01;;;;;;;1.23;0.70;;;;;;;-143.84;92.61;45233.78;5072418;28;20975;-60
2024/01/20 06:41:30;;;;;;;4.73;1.57;;;;;;;-143.84;92.74;45201.41;5072692;28;20436;-60
2024/01/20 06:43:57;;;;;;;0.80;0.50;;;;;;;-143.84;92.46;45241.41;5072195;28;20489;-60
2024/01/20 06:46:24;;;;;;;2.50;2.23;;;;;;;-143.84;92.82;45210.94;5071473;28;20452;-60
2024/01/20 06:48:51;;;;;;;0.80;0.50;;;;;;;-143.84;92.09;45205.22;5072034;28;20451;-60
2024/01/20 06:51:22;;;;;;;0.83;0.67;;;;;;;-143.84;92.60;45210.94;5071475;28;20952;-60
2024/01/20 06:53:56;;;;;;;0.80;0.60;;;;;;;-143.84;91.72;45224.25;5072077;28;20523;-60
2024/01/20 06:56:24;;;;;;;0.97;0.77;;;;;;;-143.84;91.37;45205.22;5071943;28;20594;-60
2024/01/20 06:58:52;;;;;;;0.80;0.73;;;;;;;-143.84;91.57;45193.78;5072251;28;20451;-60
2024/01/20 07:01:20;;;;;;;0.80;0.50;;;;;;;-143.84;92.12;45212.84;5072269;28;20447;-60
2024/01/20 07:03:47;;;;;;;0.80;0.50;;;;;;;-143.84;91.68;45216.63;5072350;28;20939;-60
2024/01/20 07:06:15;;;;;;;0.90;0.73;;;;;;;-143.84;91.60;45218.53;5071767;28;20438;-60
2024/01/20 07:08:43;;;;;;;0.80;0.50;;;;;;;-143.84;91.61;45243.31;5071794;28;20535;-60
2024/01/20 07:11:10;;;;;;;0.80;0.50;;;;;;;-143.84;91.60;45216.63;5071701;28;20484;-60
2024/01/20 07:13:38;;;;;;;0.80;0.40;;;;;;;-143.84;91.86;45222.34;5071966;28;20448;-60
2024/01/20 07:16:12;;;;;;;0.80;0.60;;;;;;;-143.84;91.76;45224.25;5071830;28;20444;-60
2024/01/20 07:18:39;;;;;;;1.27;0.90;;;;;;;-143.84;92.18;45226.16;5072096;28;20818;-60
2024/01/20 07:21:07;;;;;;;0.90;0.63;;;;;;;-143.84;91.87;45239.50;5071379;28;21032;-60
2024/01/20 07:23:34;;;;;;;0.80;0.50;;;;;;;-143.84;92.01;45216.63;5071548;28;20497;-60
2024/01/20 07:26:01;;;;;;;0.80;0.60;;;;;;;-143.84;91.60;45228.06;5071357;28;20441;-59
2024/01/20 07:28:28;;;;;;;1.03;0.93;;;;;;;-143.84;92.09;45228.06;5071473;28;20439;-59
2024/01/20 07:30:56;;;;;;;0.80;0.50;;;;;;;-143.84;92.09;45249.00;5070884;28;20481;-60
2024/01/20 07:33:24;;;;;;;0.80;0.60;;;;;;;-143.84;92.71;45201.41;5071958;28;20949;-60
2024/01/20 07:35:51;;;;;;;0.80;0.60;;;;;;;-143.84;93.11;45203.31;5071836;28;20521;-60
2024/01/20 07:38:19;;;;;;;0.80;0.40;;;;;;;-143.84;93.61;45229.97;5071484;28;20476;-60
2024/01/20 07:40:47;;;;;;;0.80;0.60;;;;;;;-143.84;93.28;45226.16;5071732;28;20502;-60
2024/01/20 07:43:15;;;;;;;0.80;0.60;;;;;;;-143.84;93.74;45228.06;5071614;28;20459;-60
2024/01/20 07:45:42;;;;;;;0.80;0.70;;;;;;;-143.84;94.14;45224.25;5071149;28;20438;-60
2024/01/20 07:48:09;;;;;;;0.80;0.40;;;;;;;-143.84;94.27;45245.19;5071735;28;20440;-60
2024/01/20 07:50:38;;;;;;;0.80;0.50;;;;;;;-143.84;94.49;45220.44;5071326;28;20510;-59
2024/01/20 07:53:05;;;;;;;0.80;0.50;;;;;;;-143.84;94.58;45237.59;5071364;28;20456;-59
2024/01/20 07:55:32;;;;;;;0.80;0.50;;;;;;;-143.84;94.80;45197.59;5071394;28;20804;-59
2024/01/20 07:58:00;;;;;;;0.80;0.50;;;;;;;-143.84;94.80;45226.16;5071122;28;20563;-60
2024/01/20 08:00:27;;;;;;;0.80;0.60;;;;;;;-143.84;94.82;45233.78;5071019;28;20443;-60
2024/01/20 08:02:54;;;;;;;1.13;1.03;;;;;;;-143.84;94.80;45237.59;5070991;28;20444;-60
2024/01/20 08:05:21;;;;;;;0.80;0.50;;;;;;;-143.84;95.16;45224.25;5071115;28;20437;-60
2024/01/20 08:07:50;;;;;;;0.80;0.50;;;;;;;-143.84;95.13;45231.88;5071055;28;20440;-60
2024/01/20 08:10:17;;;;;;;0.80;0.50;;;;;;;-143.84;94.80;45235.69;5075838;28;20451;-60
2024/01/20 08:12:44;;;;;;;0.80;0.63;;;;;;;-143.84;95.40;45201.41;5090962;28;20551;-60
2024/01/20 08:15:11;;;;;;;0.80;0.53;;;;;;;-143.84;95.40;45233.78;5091379;28;20433;-60
2024/01/20 08:17:38;;;;;;;0.87;0.67;;;;;;;-143.84;95.18;45247.09;5090892;28;20478;-61
2024/01/20 08:20:07;;;;;;;0.80;0.40;;;;;;;-143.84;94.88;45243.31;5088904;28;21297;-61
2024/01/20 08:22:34;;;;;;;0.80;0.50;;;;;;;-143.84;94.37;45235.69;5073771;28;20883;-61
2024/01/20 08:25:04;;;;;;;0.80;0.60;;;;;;;-143.84;94.93;45222.34;5070979;28;20949;-60
2024/01/20 08:27:32;;;;;;;0.80;0.50;;;;;;;-143.84;94.64;45197.59;5081677;28;20955;-61
2024/01/20 08:29:59;;;;;;;1.17;0.90;;;;;;;-143.84;94.02;45243.31;5073387;28;20445;-61
2024/01/20 08:32:26;;;;;;;0.80;0.50;;;;;;;-143.84;93.89;45241.41;5073430;28;20451;-61
2024/01/20 08:34:53;;;;;;;2.23;1.43;;;;;;;-143.84;93.21;45245.19;5075367;28;20452;-61
2024/01/20 08:37:21;;;;;;;0.80;0.50;;;;;;;-143.84;93.48;45203.31;5081127;28;20491;-61
2024/01/20 08:39:48;;;;;;;1.43;1.13;;;;;;;-143.84;93.29;45245.19;5090916;28;20432;-61
2024/01/20 08:42:16;;;;;;;0.80;0.40;;;;;;;-143.84;92.82;45258.53;5090204;28;20543;-60
2024/01/20 08:44:43;;;;;;;0.80;0.43;;;;;;;-143.84;93.14;45241.41;5090710;28;20455;-60
2024/01/20 08:47:11;;;;;;;3.83;1.37;;;;;;;-143.84;92.37;45247.09;5090445;28;21312;-60
2024/01/20 08:49:38;;;;;;;0.90;0.70;;;;;;;-143.84;92.44;45207.13;5090423;28;20444;-60
2024/01/20 08:52:06;;;;;;;0.80;0.60;;;;;;;-143.84;92.23;45216.63;5090277;28;20439;-61
2024/01/20 08:54:33;;;;;;;0.80;0.50;;;;;;;-143.84;92.47;45233.78;5089987;28;20431;-61
2024/01/20 08:57:00;;;;;;;0.80;0.50;;;;;;;-143.84;93.05;45226.16;5089708;28;20506;-61
2024/01/20 08:59:29;;;;;;;0.80;0.50;;;;;;;-143.84;93.23;45224.25;5085389;28;20953;-61
2024/01/20 09:01:56;;;;;;;1.17;0.93;;;;;;;-143.84;93.22;45239.50;5069631;28;20442;-61
2024/01/20 09:04:23;;;;;;;1.77;0.80;;;;;;;-143.84;93.35;45224.25;5069555;28;20437;-61
2024/01/20 09:06:50;;;;;;;0.80;0.50;;;;;;;-143.84;93.46;45247.09;5071344;28;20883;-61
2024/01/20 09:09:18;;;;;;;0.80;0.50;;;;;;;-143.84;93.11;45224.25;5075644;28;20459;-61
2024/01/20 09:11:45;;;;;;;0.80;0.50;;;;;;;-143.84;93.21;45226.16;5069498;28;20487;-60
2024/01/20 09:14:12;;;;;;;0.80;0.50;;;;;;;-143.84;93.22;45228.06;5069471;28;20463;-61
2024/01/20 09:16:40;;;;;;;0.80;0.50;;;;;;;-143.84;92.88;45207.13;5069290;28;20504;-61
2024/01/20 09:19:08;;;;;;;0.80;0.60;;;;;;;-143.84;93.17;45237.59;5069510;28;20435;-60
2024/01/20 09:21:35;;;;;;;0.80;0.50;;;;;;;-143.84;93.08;45220.44;5070729;28;20443;-60
2024/01/20 09:24:02;;;;;;;0.80;0.50;;;;;;;-143.84;92.76;45249.00;5076360;28;20805;-60
2024/01/20 09:26:29;;;;;;;0.80;0.60;;;;;;;-143.84;92.74;45247.09;5089185;28;20454;-61
2024/01/20 09:28:57;;;;;;;0.80;0.60;;;;;;;-143.84;92.63;45243.31;5085155;28;20439;-60
2024/01/20 09:31:24;;;;;;;0.80;0.50;;;;;;;-143.84;92.76;45245.19;5089665;28;20477;-60
2024/01/20 09:33:53;;;;;;;0.80;0.50;;;;;;;-143.84;92.82;45243.31;5089448;28;20441;-60
2024/01/20 09:36:20;;;;;;;0.80;0.40;;;;;;;-143.84;93.33;45229.97;5089574;28;20442;-60
2024/01/20 09:38:48;;;;;;;0.80;0.60;;;;;;;-143.84;93.08;45245.19;5089466;28;20478;-60
2024/01/20 09:41:16;;;;;;;1.67;0.83;;;;;;;-143.84;92.77;45245.19;5088514;28;20440;-61
2024/01/20 09:43:44;;;;;;;0.80;0.50;;;;;;;-143.84;92.20;45212.84;5072865;28;20436;-61
2024/01/20 09:46:12;;;;;;;0.80;0.57;;;;;;;-143.84;92.16;45193.78;5088481;28;20530;-61
2024/01/20 09:48:40;;;;;;;0.80;0.60;;;;;;;-143.84;91.83;45220.44;5069112;28;20531;-61
2024/01/20 09:51:08;;;;;;;0.80;0.50;;;;;;;-143.84;90.87;45209.03;5069146;28;20524;-61
2024/01/20 09:53:37;;;;;;;0.80;0.57;;;;;;;-143.84;90.85;45224.25;5070907;28;20450;-61
2024/01/20 09:56:04;;;;;;;0.80;0.40;;;;;;;-143.84;91.15;45222.34;5073072;28;20454;-61
2024/01/20 09:58:34;;;;;;;0.80;0.50;;;;;;;-143.84;91.26;45231.88;5073170;28;20486;-61
2024/01/20 10:01:02;;;;;;;0.80;0.40;;;;;;;-143.84;90.56;45205.22;5082422;28;20442;-61
2024/01/20 10:03:34;;;;;;;0.80;0.50;;;;;;;-143.84;90.49;45235.69;5093591;28;20440;-61
2024/01/20 10:06:01;;;;;;;0.80;0.50;;;;;;;-143.84;90.46;45250.91;5093314;28;20449;-61
2024/01/20 10:08:29;;;;;;;0.80;0.50;;;;;;;-143.84;90.41;45224.25;5093250;28;20451;-61
2024/01/20 10:11:04;;;;;;;0.80;0.60;;;;;;;-143.84;90.19;45247.09;5092842;28;20850;-60
2024/01/20 10:13:31;;;;;;;0.80;0.60;;;;;;;-143.84;90.15;45235.69;5093198;28;20554;-61
2024/01/20 10:15:59;;;;;;;0.80;0.70;;;;;;;-143.84;90.04;45218.53;5083192;28;20537;-61
2024/01/20 10:18:26;;;;;;;0.90;0.70;;;;;;;-143.84;89.81;45220.44;5072729;28;20551;-61
2024/01/20 10:21:02;;;;;;;0.80;0.50;;;;;;;-143.84;89.64;45241.41;5072543;28;20436;-61
2024/01/20 10:23:31;;;;;;;0.80;0.50;;;;;;;-143.84;89.16;45256.63;5072340;28;20475;-61
2024/01/20 10:26:02;;;;;;;1.30;0.80;;;;;;;-143.84;89.38;45220.44;5072096;28;20448;-61
2024/01/20 10:28:29;;;;;;;0.80;0.63;;;;;;;-143.84;89.80;45210.94;5077122;28;20449;-61
2024/01/20 10:30:57;;;;;;;0.80;0.50;;;;;;;-143.84;89.78;45226.16;5080983;28;20440;-61
2024/01/20 10:33:24;;;;;;;0.90;0.83;;;;;;;-143.84;89.53;45201.41;5081089;28;20806;-61
2024/01/20 10:35:52;;;;;;;1.53;0.90;;;;;;;-143.84;89.65;45233.78;5077692;28;20992;-60
2024/01/20 10:38:21;;;;;;;0.80;0.50;;;;;;;-143.84;89.39;45228.06;5072191;28;21058;-61
2024/01/20 10:40:53;;;;;;;2.20;1.77;;;;;;;-143.84;90.20;45226.16;5072439;28;20505;-61
2024/01/20 10:43:20;;;;;;;0.80;0.50;;;;;;;-143.84;90.24;45231.88;5072083;28;21046;-61
2024/01/20 10:45:59;;;;;;;0.90;0.80;;;;;;;-143.84;90.07;45222.34;5071896;28;20460;-61
2024/01/20 10:48:28;;;;;;;2.30;2.10;;;;;;;-143.84;90.49;45218.53;5074834;28;20450;-61
2024/01/20 10:50:59;;;;;;;0.80;0.50;;;;;;;-143.84;90.98;45243.31;5072228;28;20448;-61
2024/01/20 10:53:27;;;;;;;0.80;0.50;;;;;;;-143.84;91.70;45210.94;5074700;28;20539;-61
2024/01/20 10:55:57;;;;;;;3.20;2.30;;;;;;;-143.84;90.79;45250.91;5087924;28;20454;-61
2024/01/20 10:58:31;;;;;;;0.80;0.50;;;;;;;-143.84;90.74;45237.59;5074566;28;20530;-61
2024/01/20 11:00:59;;;;;;;0.80;0.60;;;;;;;-143.84;90.21;45235.69;5074977;28;20438;-60
2024/01/20 11:03:27;;;;;;;0.80;0.60;;;;;;;-143.84;90.07;45237.59;5080448;28;20952;-60
2024/01/20 11:05:54;;;;;;;0.80;0.60;;;;;;;-143.84;89.78;45229.97;5077391;28;20525;-61
2024/01/20 11:08:25;;;;;;;0.80;0.50;;;;;;;-143.84;90.39;45207.13;5081876;28;20475;-61
2024/01/20 11:10:53;;;;;;;0.80;0.50;;;;;;;-143.84;90.41;45235.69;5080099;28;20488;-61
2024/01/20 11:13:24;;;;;;;0.80;0.60;;;;;;;-143.84;90.34;45250.91;5082733;28;20962;-61
2024/01/20 11:15:52;;;;;;;0.80;0.50;;;;;;;-143.84;90.78;45222.34;5091846;28;20457;-61
2024/01/20 11:18:20;;;;;;;1.10;1.00;;;;;;;-143.84;91.02;45216.63;5091691;28;20546;-61